Alplaus, New York
Current Conditions -  °F | °C
As of 4:51 AM on Monday 22 Dec 2014 (Local Time) from KALB Reporting Station
Light Snow Light Snow  
Wind Chill: 24°   Ceiling: 2200
Heat Index: 29°   Visibility: 8mi
Dew Point: 24°   Wind: 5mph
Humidity: 82%   Direction: 340°NNW
Pressure: 30.36"   Gusts: NA
Location:  42.86°N, 73.9°W
Report Text: KALB 220951Z 34004KT 8SM -SN OVC022 M02/M04 A3036 RMK AO2 SLP286 PCPN VRY LGT P0000 T10171044
Loading
Personal Weather Stations






























Interactive Weather Map New forecast layout! Learn more

10-Day Weather Forecast

Advertisements
Track Severe Weather on mobile